createdAt,value
2018-06-13T00:02:29.118Z,1.90
2018-06-13T00:05:00.581Z,1.30
2018-06-13T00:07:32.048Z,1.60
2018-06-13T00:10:03.877Z,1.33
2018-06-13T00:12:35.321Z,1.40
2018-06-13T00:15:07.219Z,1.43
2018-06-13T00:17:38.949Z,1.53
2018-06-13T00:20:10.670Z,1.80
2018-06-13T00:22:42.150Z,1.73
2018-06-13T00:25:13.873Z,1.90
2018-06-13T00:27:45.426Z,1.40
2018-06-13T00:30:16.529Z,1.33
2018-06-13T00:32:48.009Z,1.90
2018-06-13T00:35:19.514Z,1.80
2018-06-13T00:37:51.073Z,1.60
2018-06-13T00:40:22.697Z,1.60
2018-06-13T00:42:54.174Z,1.60
2018-06-13T00:45:25.634Z,1.60
2018-06-13T00:47:57.077Z,1.90
2018-06-13T00:50:28.555Z,1.63
2018-06-13T00:53:00.622Z,1.50
2018-06-13T00:55:32.203Z,1.40
2018-06-13T00:58:03.277Z,1.67
2018-06-13T01:00:34.539Z,1.53
2018-06-13T01:03:05.999Z,1.63
2018-06-13T01:05:38.547Z,1.57
2018-06-13T01:08:09.849Z,1.70
2018-06-13T01:10:41.070Z,1.43
2018-06-13T01:13:12.531Z,1.60
2018-06-13T01:15:44.054Z,1.87
2018-06-13T01:18:15.813Z,1.90
2018-06-13T01:20:48.909Z,1.63
2018-06-13T01:23:20.364Z,2.80
2018-06-13T01:25:51.809Z,2.20
2018-06-13T01:28:23.368Z,2.20
2018-06-13T01:30:54.985Z,1.60
2018-06-13T01:33:26.444Z,1.60
2018-06-13T01:35:58.014Z,1.57
2018-06-13T01:38:29.131Z,1.43
2018-06-13T01:41:00.358Z,1.60
2018-06-13T01:43:32.510Z,2.10
2018-06-13T01:46:04.411Z,1.77
2018-06-13T01:48:35.893Z,1.73
2018-06-13T01:51:07.337Z,1.50
2018-06-13T01:53:38.935Z,1.70
2018-06-13T01:56:10.544Z,1.80
2018-06-13T01:58:42.013Z,1.90
2018-06-13T02:01:13.600Z,1.80
2018-06-13T02:03:45.100Z,1.50
2018-06-13T02:06:16.210Z,1.90
2018-06-13T02:08:47.514Z,1.77
2018-06-13T02:11:18.985Z,1.50
2018-06-13T02:13:50.861Z,1.90
2018-06-13T02:19:09.072Z,1.70
2018-06-13T02:21:40.633Z,2.10
2018-06-13T02:24:12.129Z,1.70
2018-06-13T02:26:43.582Z,1.57
2018-06-13T02:29:15.085Z,1.90
2018-06-13T02:31:46.584Z,1.90
2018-06-13T02:34:18.045Z,1.97
2018-06-13T02:36:50.498Z,1.57
2018-06-13T02:39:22.092Z,1.70
2018-06-13T02:41:53.526Z,1.90
2018-06-13T02:44:25.014Z,1.60
2018-06-13T02:46:56.846Z,1.97
2018-06-13T02:49:28.313Z,1.90
2018-06-13T02:51:59.817Z,1.70
2018-06-13T02:54:31.343Z,1.70
2018-06-13T02:57:02.904Z,1.90
2018-06-13T02:59:34.369Z,2.03
2018-06-13T03:02:06.177Z,2.10
2018-06-13T03:04:37.952Z,2.10
2018-06-13T03:07:09.445Z,1.93
2018-06-13T03:09:41.038Z,1.63
2018-06-13T03:12:12.523Z,1.90
2018-06-13T03:14:43.614Z,2.30
2018-06-13T03:17:14.910Z,1.57
2018-06-13T03:19:46.066Z,2.27
2018-06-13T03:22:17.383Z,2.27
2018-06-13T03:24:48.790Z,1.90
2018-06-13T03:27:20.242Z,2.00
2018-06-13T03:29:51.873Z,2.37
2018-06-13T03:32:23.315Z,2.07
2018-06-13T03:34:54.740Z,2.20
2018-06-13T03:37:26.183Z,2.50
2018-06-13T03:39:57.677Z,1.97
2018-06-13T03:42:29.106Z,2.30
2018-06-13T03:45:00.612Z,2.37
2018-06-13T03:47:31.900Z,2.23
2018-06-13T03:50:03.452Z,1.90
2018-06-13T03:52:35.014Z,2.40
2018-06-13T03:55:06.703Z,1.87
2018-06-13T03:57:38.183Z,2.70
2018-06-13T04:00:09.657Z,2.00
2018-06-13T04:02:41.086Z,2.10
2018-06-13T04:05:12.821Z,2.37
2018-06-13T04:07:44.240Z,2.17
2018-06-13T04:10:15.711Z,2.10
2018-06-13T04:12:47.128Z,2.00
2018-06-13T04:15:18.862Z,2.53
2018-06-13T04:17:50.345Z,2.47
2018-06-13T04:20:21.825Z,2.30
2018-06-13T04:22:53.292Z,2.07
2018-06-13T04:25:24.747Z,2.30
2018-06-13T04:27:56.268Z,2.70
2018-06-13T04:30:27.749Z,2.40
2018-06-13T04:32:59.190Z,2.60
2018-06-13T04:35:30.641Z,2.87
2018-06-13T04:38:02.241Z,2.47
2018-06-13T04:40:33.826Z,2.30
2018-06-13T04:43:05.316Z,2.63
2018-06-13T04:45:36.493Z,2.10
2018-06-13T04:48:07.733Z,2.10
2018-06-13T04:50:39.245Z,2.13
2018-06-13T04:53:10.758Z,2.20
2018-06-13T04:55:42.258Z,2.97
2018-06-13T04:58:13.699Z,2.57
2018-06-13T05:00:45.486Z,2.03
2018-06-13T05:03:16.976Z,1.83
2018-06-13T05:05:48.456Z,2.07
2018-06-13T05:08:19.903Z,1.97
2018-06-13T05:10:51.442Z,1.83
2018-06-13T05:13:23.187Z,1.90
2018-06-13T05:15:54.746Z,1.97
2018-06-13T05:18:26.224Z,2.07
2018-06-13T05:20:58.007Z,2.27
2018-06-13T05:23:29.601Z,2.30
2018-06-13T05:26:01.297Z,2.40
2018-06-13T05:28:33.103Z,2.20
2018-06-13T05:31:05.077Z,2.07
2018-06-13T05:33:36.682Z,2.60
2018-06-13T05:36:08.492Z,1.83
2018-06-13T05:38:39.942Z,2.03
2018-06-13T05:41:11.362Z,4.00
2018-06-13T05:43:42.873Z,1.90
2018-06-13T05:46:14.472Z,1.67
2018-06-13T05:48:45.978Z,1.90
2018-06-13T05:51:17.426Z,2.17
2018-06-13T05:53:48.977Z,2.07
2018-06-13T05:56:20.651Z,2.73
2018-06-13T05:58:52.074Z,2.00
2018-06-13T06:01:23.935Z,2.03
2018-06-13T06:03:55.678Z,1.70
2018-06-13T06:06:27.156Z,1.73
2018-06-13T06:08:58.750Z,1.73
2018-06-13T06:11:30.337Z,1.53
2018-06-13T06:14:01.836Z,1.47
2018-06-13T06:16:33.858Z,2.07
2018-06-13T06:19:05.387Z,1.47
2018-06-13T06:21:37.024Z,2.17
2018-06-13T06:24:08.617Z,2.00
2018-06-13T06:26:40.656Z,2.17
2018-06-13T06:29:12.357Z,2.00
2018-06-13T06:31:43.959Z,2.07
2018-06-13T06:34:15.562Z,1.70
2018-06-13T06:36:48.060Z,2.00
2018-06-13T06:39:19.798Z,2.10
2018-06-13T06:41:51.393Z,2.17
2018-06-13T06:44:22.892Z,2.40
2018-06-13T06:46:54.437Z,2.80
2018-06-13T06:49:26.887Z,2.17
2018-06-13T06:51:58.845Z,2.30
2018-06-13T06:54:30.702Z,1.80
2018-06-13T06:57:02.454Z,1.80
2018-06-13T06:59:33.963Z,1.97
2018-06-13T07:02:05.533Z,2.20
2018-06-13T07:04:37.117Z,2.40
2018-06-13T07:07:08.856Z,1.97
2018-06-13T07:09:40.694Z,2.30
2018-06-13T07:12:12.258Z,1.93
2018-06-13T07:14:44.121Z,1.90
2018-06-13T07:17:15.938Z,2.00
2018-06-13T07:19:47.386Z,1.90
2018-06-13T07:22:18.936Z,2.97
2018-06-13T07:24:50.797Z,2.23
2018-06-13T07:27:23.361Z,2.03
2018-06-13T07:29:54.516Z,1.90
2018-06-13T07:32:25.743Z,2.40
2018-06-13T07:34:57.385Z,1.93
2018-06-13T07:37:29.005Z,1.60
2018-06-13T07:40:00.801Z,1.83
2018-06-13T07:42:32.348Z,1.60
2018-06-13T07:45:10.564Z,1.50
2018-06-13T07:47:42.232Z,1.70
2018-06-13T07:50:13.436Z,2.97
2018-06-13T07:52:44.865Z,2.10
2018-06-13T07:55:16.653Z,1.60
2018-06-13T07:57:48.461Z,1.13
2018-06-13T08:00:19.909Z,1.40
2018-06-13T08:02:51.776Z,1.20
2018-06-13T08:05:22.773Z,1.40
2018-06-13T08:07:54.374Z,1.50
2018-06-13T08:10:26.421Z,1.10
2018-06-13T08:12:57.930Z,1.57
2018-06-13T08:15:29.513Z,1.87
2018-06-13T08:18:01.446Z,1.87
2018-06-13T08:20:33.032Z,1.67
2018-06-13T08:23:04.864Z,2.43
2018-06-13T08:25:36.444Z,1.90
2018-06-13T08:28:08.030Z,2.70
2018-06-13T08:30:39.615Z,2.40
2018-06-13T08:33:11.289Z,2.67
2018-06-13T08:35:42.791Z,1.93
2018-06-13T08:38:14.233Z,1.50
2018-06-13T08:40:46.314Z,1.70
2018-06-13T08:43:17.885Z,1.93
2018-06-13T08:45:49.295Z,1.93
2018-06-13T08:48:20.883Z,2.07
2018-06-13T08:50:52.821Z,1.80
2018-06-13T08:53:24.314Z,1.63
2018-06-13T08:55:55.929Z,1.50
2018-06-13T08:58:27.494Z,1.50
2018-06-13T09:00:59.029Z,1.23
2018-06-13T09:03:31.034Z,1.50
2018-06-13T09:06:02.735Z,1.90
2018-06-13T09:08:34.341Z,1.60
2018-06-13T09:11:06.362Z,1.80
2018-06-13T09:13:37.921Z,1.60
2018-06-13T09:16:09.392Z,1.30
2018-06-13T09:18:47.431Z,1.73
2018-06-13T09:21:18.881Z,1.50
2018-06-13T09:23:50.430Z,1.20
2018-06-13T09:26:22.259Z,1.50
2018-06-13T09:28:53.845Z,1.33
2018-06-13T09:31:25.068Z,1.30
2018-06-13T09:33:56.362Z,1.40
2018-06-13T09:36:27.890Z,1.70
2018-06-13T09:38:59.385Z,1.33
2018-06-13T09:41:30.941Z,1.60
2018-06-13T09:44:02.550Z,1.20
2018-06-13T09:46:34.744Z,1.33
2018-06-13T09:49:06.269Z,1.50
2018-06-13T09:51:41.659Z,1.53
2018-06-13T09:54:13.356Z,2.10
2018-06-13T09:56:45.237Z,2.83
2018-06-13T09:59:20.839Z,2.33
2018-06-13T10:01:57.428Z,1.73
2018-06-13T10:04:29.106Z,1.67
2018-06-13T10:07:01.247Z,2.20
2018-06-13T10:09:32.554Z,1.57
2018-06-13T10:12:04.098Z,1.40
2018-06-13T10:14:36.010Z,1.50
2018-06-13T10:17:07.456Z,1.50
2018-06-13T10:19:39.469Z,1.70
2018-06-13T10:22:10.977Z,1.53
2018-06-13T10:24:42.730Z,1.43
2018-06-13T10:27:19.247Z,1.73
2018-06-13T10:29:50.986Z,2.20
2018-06-13T10:32:22.817Z,2.07
2018-06-13T10:34:54.383Z,2.07
2018-06-13T10:37:26.688Z,1.83
2018-06-13T10:39:58.603Z,1.50
2018-06-13T10:42:30.102Z,1.50
2018-06-13T10:45:01.698Z,1.60
2018-06-13T10:47:33.295Z,1.73
2018-06-13T10:50:05.278Z,1.93
2018-06-13T10:52:37.462Z,1.60
2018-06-13T10:55:10.282Z,1.67
2018-06-13T10:57:43.238Z,2.10
2018-06-13T11:00:14.815Z,2.10
2018-06-13T11:02:46.822Z,1.47
2018-06-13T11:05:18.395Z,13.13
2018-06-13T11:07:49.876Z,19.00
2018-06-13T11:10:21.083Z,6.07
2018-06-13T11:12:52.517Z,2.70
2018-06-13T11:15:24.663Z,1.90
2018-06-13T11:17:56.581Z,1.57
2018-06-13T11:20:28.091Z,1.87
2018-06-13T11:22:59.997Z,1.80
2018-06-13T11:25:31.743Z,2.07
2018-06-13T11:28:03.276Z,1.70
2018-06-13T11:30:34.841Z,1.90
2018-06-13T11:33:06.422Z,2.10
2018-06-13T11:35:38.034Z,2.40
2018-06-13T11:38:09.511Z,2.10
2018-06-13T11:40:41.136Z,2.17
2018-06-13T11:43:13.632Z,2.60
2018-06-13T11:45:45.129Z,2.47
2018-06-13T11:48:16.808Z,2.50
2018-06-13T11:50:48.517Z,2.40
2018-06-13T11:53:20.245Z,2.10
2018-06-13T11:55:51.737Z,2.30
2018-06-13T11:58:23.266Z,2.00
2018-06-13T12:00:56.164Z,1.97
2018-06-13T12:03:27.850Z,2.50
2018-06-13T12:05:59.420Z,1.90
2018-06-13T12:08:31.304Z,2.43
2018-06-13T12:11:03.077Z,2.30
2018-06-13T12:13:34.731Z,2.33
2018-06-13T12:16:06.364Z,2.07
2018-06-13T12:18:37.287Z,2.63
2018-06-13T12:21:08.791Z,2.30
2018-06-13T12:23:40.294Z,2.10
2018-06-13T12:26:11.605Z,2.60
2018-06-13T12:28:43.018Z,1.97
2018-06-13T12:31:14.628Z,2.20
2018-06-13T12:33:46.811Z,1.70
2018-06-13T12:36:18.555Z,1.93
2018-06-13T12:38:50.041Z,1.90
2018-06-13T12:41:21.789Z,2.27
2018-06-13T12:43:53.387Z,2.30
2018-06-13T12:46:25.674Z,2.87
2018-06-13T12:48:57.530Z,1.80
2018-06-13T12:51:29.429Z,2.80
2018-06-13T12:54:01.667Z,1.97
2018-06-13T12:56:33.439Z,2.00
2018-06-13T12:59:05.241Z,2.33
2018-06-13T13:01:37.012Z,2.00
2018-06-13T13:04:08.655Z,2.00
2018-06-13T13:06:40.874Z,1.93
2018-06-13T13:09:13.917Z,1.70
2018-06-13T13:11:45.515Z,1.50
2018-06-13T13:14:17.075Z,1.77
2018-06-13T13:16:48.595Z,1.50
2018-06-13T13:19:20.476Z,2.07
2018-06-13T13:21:52.047Z,1.77
2018-06-13T13:24:23.654Z,3.40
2018-06-13T13:26:55.525Z,2.20
2018-06-13T13:29:27.375Z,2.00
2018-06-13T13:31:59.160Z,2.10
2018-06-13T13:34:30.820Z,1.60
2018-06-13T13:37:07.924Z,1.83
2018-06-13T13:39:41.141Z,1.90
2018-06-13T13:42:12.960Z,2.37
2018-06-13T13:44:50.276Z,2.13
2018-06-13T13:47:27.555Z,1.97
2018-06-13T13:50:00.305Z,1.57
2018-06-13T13:52:32.207Z,1.47
2018-06-13T13:55:03.926Z,1.30
2018-06-13T13:57:35.531Z,1.37
2018-06-13T14:00:07.455Z,1.23
2018-06-13T14:02:39.004Z,1.90
2018-06-13T14:05:10.504Z,1.80
2018-06-13T14:07:41.898Z,1.50
2018-06-13T14:10:13.535Z,1.50
2018-06-13T14:12:45.292Z,1.43
2018-06-13T14:15:16.868Z,1.50
2018-06-13T14:17:48.534Z,1.53
2018-06-13T14:20:20.043Z,1.50
2018-06-13T14:22:51.762Z,1.70
2018-06-13T14:25:25.031Z,1.50
2018-06-13T14:27:56.600Z,1.90
2018-06-13T14:30:29.176Z,1.80
2018-06-13T14:33:00.949Z,1.80
2018-06-13T14:35:33.249Z,1.90
2018-06-13T14:38:04.881Z,1.93
2018-06-13T14:40:36.510Z,1.50
2018-06-13T14:43:08.241Z,1.33
2018-06-13T14:45:39.880Z,1.20
2018-06-13T14:48:11.497Z,1.90
2018-06-13T14:50:43.462Z,1.57
2018-06-13T14:53:16.375Z,1.10
2018-06-13T14:55:55.029Z,1.80
2018-06-13T14:58:28.651Z,1.60
2018-06-13T15:01:00.725Z,1.53
2018-06-13T15:03:32.736Z,1.60
2018-06-13T15:06:04.310Z,1.70
2018-06-13T15:08:36.039Z,1.30
2018-06-13T15:11:08.121Z,1.30
2018-06-13T15:13:40.859Z,1.17
2018-06-13T15:16:13.479Z,1.73
2018-06-13T15:18:45.369Z,1.50
2018-06-13T15:21:17.047Z,1.50
2018-06-13T15:23:48.887Z,1.40
2018-06-13T15:26:20.451Z,1.53
2018-06-13T15:28:51.789Z,1.60
2018-06-13T15:31:23.942Z,1.30
2018-06-13T15:33:56.414Z,1.50
2018-06-13T15:36:28.593Z,1.43
2018-06-13T15:39:00.162Z,1.37
2018-06-13T15:41:31.336Z,1.20
2018-06-13T15:44:03.757Z,1.30
2018-06-13T15:46:35.326Z,1.40
2018-06-13T15:49:08.018Z,1.70
2018-06-13T15:51:39.842Z,1.87
2018-06-13T15:54:18.070Z,1.50
2018-06-13T15:56:49.680Z,1.50
2018-06-13T15:59:21.217Z,1.47
2018-06-13T16:01:52.819Z,1.50
2018-06-13T16:04:24.562Z,1.90
2018-06-13T16:06:56.661Z,1.57
2018-06-13T16:09:28.908Z,1.47
2018-06-13T16:12:01.368Z,1.20
2018-06-13T16:14:33.497Z,1.27
2018-06-13T16:17:05.367Z,1.60
2018-06-13T16:19:37.102Z,1.10
2018-06-13T16:22:09.186Z,1.27
2018-06-13T16:24:41.393Z,1.73
2018-06-13T16:27:13.364Z,1.30
2018-06-13T16:29:44.872Z,1.67
2018-06-13T16:32:17.119Z,2.13
2018-06-13T16:34:49.042Z,1.73
2018-06-13T16:37:20.618Z,1.70
2018-06-13T16:39:52.295Z,1.50
2018-06-13T16:42:23.884Z,1.43
2018-06-13T16:44:55.406Z,1.60
2018-06-13T16:47:27.058Z,1.40
2018-06-13T16:49:58.542Z,1.57
2018-06-13T16:52:46.678Z,1.60
2018-06-13T16:55:24.506Z,1.70
2018-06-13T16:57:55.727Z,1.60
2018-06-13T17:00:28.287Z,1.50
2018-06-13T17:02:59.797Z,1.50
2018-06-13T17:05:31.764Z,1.37
2018-06-13T17:08:03.411Z,1.50
2018-06-13T17:10:34.945Z,1.70
2018-06-13T17:13:06.782Z,1.70
2018-06-13T17:15:38.512Z,1.47
2018-06-13T17:18:10.013Z,1.97
2018-06-13T17:20:41.714Z,1.57
2018-06-13T17:23:13.267Z,1.80
2018-06-13T17:25:45.302Z,1.40
2018-06-13T17:28:17.037Z,1.50
2018-06-13T17:30:48.519Z,1.50
2018-06-13T17:33:20.044Z,1.80
2018-06-13T17:35:51.642Z,1.70
2018-06-13T17:38:29.962Z,1.70
2018-06-13T17:41:02.126Z,1.47
2018-06-13T17:43:33.672Z,1.27
2018-06-13T17:46:06.639Z,1.43
2018-06-13T17:48:39.117Z,1.10
2018-06-13T17:51:10.919Z,1.40
2018-06-13T17:53:43.299Z,1.67
2018-06-13T17:56:14.536Z,1.80
2018-06-13T17:58:46.168Z,1.67
2018-06-13T18:01:18.429Z,1.60
2018-06-13T18:03:51.046Z,1.90
2018-06-13T18:06:29.543Z,1.60
2018-06-13T18:09:01.139Z,1.57
2018-06-13T18:11:32.622Z,1.70
2018-06-13T18:14:04.343Z,1.60
2018-06-13T18:16:36.669Z,1.60
2018-06-13T18:19:08.833Z,1.67
2018-06-13T18:21:40.957Z,1.60
2018-06-13T18:24:13.026Z,1.53
2018-06-13T18:26:45.231Z,1.83
2018-06-13T18:29:16.923Z,1.70
2018-06-13T18:31:48.890Z,1.77
2018-06-13T18:34:20.548Z,1.50
2018-06-13T18:36:52.478Z,1.67
2018-06-13T18:39:24.153Z,1.70
2018-06-13T18:41:55.656Z,1.60
2018-06-13T18:44:26.860Z,1.60
2018-06-13T18:46:58.414Z,1.73
2018-06-13T18:49:30.307Z,1.40
2018-06-13T18:52:02.134Z,1.70
2018-06-13T18:54:33.742Z,1.60
2018-06-13T18:57:05.598Z,1.60
2018-06-13T18:59:37.275Z,1.80
2018-06-13T19:02:09.249Z,1.70
2018-06-13T19:04:41.105Z,1.40
2018-06-13T19:07:12.677Z,1.30
2018-06-13T19:09:44.273Z,1.60
2018-06-13T19:12:15.862Z,1.53
2018-06-13T19:14:47.489Z,2.00
2018-06-13T19:17:19.083Z,1.83
2018-06-13T19:19:51.020Z,1.40
2018-06-13T19:22:25.200Z,1.57
2018-06-13T19:24:58.883Z,1.90
2018-06-13T19:27:32.860Z,1.83
2018-06-13T19:30:04.495Z,1.60
2018-06-13T19:32:39.397Z,1.90
2018-06-13T19:35:11.239Z,1.87
2018-06-13T19:37:44.716Z,1.70
2018-06-13T19:40:19.065Z,1.60
2018-06-13T19:42:52.074Z,1.97
2018-06-13T19:45:26.169Z,1.80
2018-06-13T19:48:04.941Z,2.30
2018-06-13T19:50:37.521Z,1.77
2018-06-13T19:53:15.987Z,1.80
2018-06-13T19:55:53.387Z,1.87
2018-06-13T19:58:25.715Z,1.77
2018-06-13T20:00:59.797Z,1.43
2018-06-13T20:03:38.417Z,1.70
2018-06-13T20:06:12.200Z,3.10
2018-06-13T20:08:45.924Z,4.03
2018-06-13T20:11:19.038Z,3.87
2018-06-13T20:13:57.612Z,3.37
2018-06-13T20:16:53.277Z,3.10
2018-06-13T20:19:31.954Z,3.43
2018-06-13T20:22:06.487Z,2.83
2018-06-13T20:24:40.292Z,2.90
2018-06-13T20:28:17.371Z,2.70
2018-06-13T20:30:55.303Z,2.90
2018-06-13T20:33:28.902Z,2.47
2018-06-13T20:36:02.710Z,2.30
2018-06-13T20:38:35.903Z,2.30
2018-06-13T20:41:09.829Z,1.67
2018-06-13T20:43:43.026Z,2.00
2018-06-13T20:46:15.778Z,2.07
2018-06-13T20:48:49.029Z,1.90
2018-06-13T20:51:23.487Z,2.03
2018-06-13T20:53:57.684Z,2.13
2018-06-13T20:56:31.201Z,1.97
2018-06-13T20:59:03.292Z,2.13
2018-06-13T21:01:34.820Z,2.23
2018-06-13T21:04:06.491Z,2.00
2018-06-13T21:06:38.287Z,2.10
2018-06-13T21:09:11.473Z,2.40
2018-06-13T21:11:43.816Z,2.43
2018-06-13T21:14:15.323Z,1.77
2018-06-13T21:16:46.771Z,1.70
2018-06-13T21:19:18.746Z,1.57
2018-06-13T21:21:50.733Z,1.60
2018-06-13T21:24:22.205Z,1.73
2018-06-13T21:26:53.919Z,1.80
2018-06-13T21:29:25.633Z,1.80
2018-06-13T21:31:57.482Z,1.87
2018-06-13T21:34:29.045Z,2.13
2018-06-13T21:37:00.812Z,2.40
2018-06-13T21:39:32.413Z,1.73
2018-06-13T21:42:05.267Z,2.13
2018-06-13T21:44:37.102Z,2.23
2018-06-13T21:47:08.694Z,2.13
2018-06-13T21:49:40.179Z,1.90
2018-06-13T21:52:18.673Z,1.70
2018-06-13T21:54:50.400Z,1.73
2018-06-13T21:57:22.028Z,1.87
2018-06-13T21:59:53.621Z,1.93
2018-06-13T22:02:25.152Z,2.00
2018-06-13T22:04:56.697Z,2.00
2018-06-13T22:07:28.273Z,2.00
2018-06-13T22:09:59.793Z,2.10
2018-06-13T22:12:31.786Z,2.00
2018-06-13T22:15:04.162Z,2.00
2018-06-13T22:17:35.702Z,2.30
2018-06-13T22:20:07.374Z,2.40
2018-06-13T22:22:39.246Z,1.80
2018-06-13T22:25:10.811Z,2.07
2018-06-13T22:27:42.634Z,2.00
2018-06-13T22:30:14.677Z,2.17
2018-06-13T22:32:46.646Z,2.07
2018-06-13T22:35:18.190Z,1.90
2018-06-13T22:37:49.711Z,1.97
2018-06-13T22:40:21.333Z,2.07
2018-06-13T22:42:52.860Z,2.47
2018-06-13T22:45:24.630Z,1.90
2018-06-13T22:47:56.241Z,1.87
2018-06-13T22:50:27.923Z,2.20
2018-06-13T22:52:59.597Z,1.90
2018-06-13T22:55:30.843Z,2.40
2018-06-13T22:58:02.403Z,2.50
2018-06-13T23:01:10.491Z,2.10
2018-06-13T23:03:42.040Z,2.00
2018-06-13T23:06:13.622Z,1.83
2018-06-13T23:08:45.361Z,2.10
2018-06-13T23:11:16.841Z,1.90
2018-06-13T23:13:48.442Z,2.20
2018-06-13T23:16:19.578Z,1.83
2018-06-13T23:18:51.302Z,2.00
2018-06-13T23:21:22.823Z,2.20
2018-06-13T23:23:54.347Z,1.80
2018-06-13T23:26:26.189Z,1.90
2018-06-13T23:28:57.956Z,2.00
2018-06-13T23:31:29.372Z,1.90
2018-06-13T23:34:00.660Z,1.73
2018-06-13T23:36:31.870Z,2.00
2018-06-13T23:39:03.646Z,1.90
2018-06-13T23:41:35.385Z,2.13
2018-06-13T23:44:06.958Z,2.00
2018-06-13T23:46:38.741Z,1.90
2018-06-13T23:49:10.454Z,1.97
2018-06-13T23:51:41.901Z,2.13
2018-06-13T23:54:13.061Z,1.83
2018-06-13T23:56:44.319Z,1.97
2018-06-13T23:59:15.814Z,2.20
